Calypso — IYQT — position and weather

sailwx.info

Track history (hours):
 
Tides and Currents Weather Stations Pressure Air Temp Water Temp Dewpoint Dewpoint Depression Visibility Wind Speed Wind Dir Waves Ship Positions

Calypso

Last reported at 2016-May-02 17:34 UTC. Time now 2016-May-03 03:04 UTC.
Position N 37°60' E 012°29'.

Length 31 m; draft 4.2 m.

MMSI: 247143200.

Date/timePositionNaut miles runAvg speedWind from/ knotsBaromVisibWave heightAir tempDewpointWater temp
2016-May-02 17:34N 37°60' E 012°29'2 2.0
2016-May-02 16:34N 38°01' E 012°31'8 8.1
2016-May-02 15:33N 37°59' E 012°21'3 3.2
2016-May-02 14:32N 37°56' E 012°20'1010.2
2016-May-02 13:33N 38°01' E 012°31'8 8.2
2016-May-02 12:34N 37°59' E 012°21'8 8.2
2016-May-02 11:33N 38°01' E 012°31'0 0.0
2016-May-02 10:33N 38°01' E 012°31'0 0.0
2016-May-02 09:33N 38°01' E 012°31'1010.0
2016-May-02 08:33N 37°56' E 012°19'10 9.6
2016-May-02 07:33N 37°58' E 012°08'1818.3
2016-May-02 06:33N 38°01' E 012°31'8 8.2
2016-May-02 05:33N 37°59' E 012°21'8 8.2
2016-May-02 04:33N 38°01' E 012°31'0 0.0
2016-May-01 19:33N 38°01' E 012°31'0 0.0
2016-May-01 18:24N 38°01' E 012°31'7 8.1
2016-May-01 17:33N 37°58' E 012°23'7 6.7
2016-May-01 16:33N 38°01' E 012°31'8 8.2
2016-May-01 15:33N 37°59' E 012°21'1010.0
2016-May-01 14:33N 37°58' E 012°08'1818.3
2016-May-01 13:33N 38°01' E 012°31'8 8.2
2016-May-01 12:34N 37°59' E 012°21'8 8.2
2016-May-01 11:33N 38°01' E 012°31'0 0.0
2016-May-01 10:33N 38°01' E 012°31'0 0.0
2016-May-01 09:33N 38°01' E 012°31'8 8.1
2016-May-01 08:34N 37°57' E 012°22'1413.7
2016-May-01 07:33N 37°58' E 012°05'1919.1
2016-May-01 06:34N 37°60' E 012°29'7 6.6
2016-May-01 05:33N 37°58' E 012°20'8 8.4
2016-May-01 04:33N 38°01' E 012°31'1 0.1
2016-Apr-30 17:34N 38°00' E 012°30'1 1.1
2016-Apr-30 16:33N 38°01' E 012°31'8 8.2
2016-Apr-30 15:33N 37°59' E 012°21'2 2.2
2016-Apr-30 14:34N 37°57' E 012°19'10 9.9
2016-Apr-30 13:33N 38°01' E 012°31'8 8.2
2016-Apr-30 12:34N 37°59' E 012°21'8 8.2
2016-Apr-30 11:33N 38°01' E 012°31'0 0.0
2016-Apr-30 10:33N 38°01' E 012°31'0 0.0
2016-Apr-30 09:33N 38°01' E 012°31'6 6.5
2016-Apr-30 08:33N 37°58' E 012°24'1515.0
2016-Apr-30 07:34N 37°58' E 012°05'1817.5
2016-Apr-30 06:33N 37°59' E 012°27'6 5.8
2016-Apr-30 05:34N 37°57' E 012°20'9 9.3
2016-Apr-30 04:33N 38°01' E 012°31'2 0.2
2016-Apr-29 17:34N 37°60' E 012°29'2 2.0
2016-Apr-29 16:33N 38°01' E 012°31'8 8.2
2016-Apr-29 15:33N 37°59' E 012°21'3 2.8
2016-Apr-29 14:33N 37°57' E 012°18'1110.8
2016-Apr-29 13:34N 38°01' E 012°31'8 8.2
2016-Apr-29 12:34N 37°59' E 012°21'8 8.1
2016-Apr-29 11:33N 38°01' E 012°31'0 0.0
2016-Apr-29 10:33N 38°01' E 012°31'0 0.0
2016-Apr-29 09:33N 38°01' E 012°31'8 8.5
2016-Apr-29 08:33N 37°57' E 012°21'1211.4
2016-Apr-29 07:33N 37°58' E 012°07'1918.9
2016-Apr-29 06:34N 38°01' E 012°30'9 8.9
2016-Apr-29 05:33N 37°58' E 012°20'9 9.2
2016-Apr-29 04:33N 38°01' E 012°31'1 0.1
2016-Apr-28 17:33N 38°00' E 012°30'1 1.0
2016-Apr-28 16:34N 38°01' E 012°31'8 8.2
2016-Apr-28 15:34N 37°59' E 012°21'2 2.2
2016-Apr-28 14:34N 37°57' E 012°19'1010.0
2016-Apr-28 13:34N 38°01' E 012°31'8 8.2
2016-Apr-28 12:33N 37°59' E 012°20'8 8.2
2016-Apr-28 11:33N 38°01' E 012°31'0 0.0
2016-Apr-28 10:33N 38°01' E 012°31'5 4.9
2016-Apr-28 09:33N 38°00' E 012°24'3 2.9
2016-Apr-28 08:34N 37°57' E 012°23'1313.2
2016-Apr-28 07:33N 37°58' E 012°06'1918.7
2016-Apr-28 06:33N 38°00' E 012°30'7 7.4
2016-Apr-28 05:33N 37°59' E 012°20'8 8.3
2016-Apr-28 04:33N 38°01' E 012°31'2 0.2
2016-Apr-27 17:33N 38°00' E 012°29'2 1.5
2016-Apr-27 16:34N 38°01' E 012°30'8 8.0
2016-Apr-27 15:33N 37°59' E 012°21'2 2.2
2016-Apr-27 14:33N 37°58' E 012°18'1010.1
2016-Apr-27 13:33N 38°01' E 012°31'8 8.2
2016-Apr-27 12:33N 37°59' E 012°20'8 8.2
2016-Apr-27 11:33N 38°01' E 012°31'0 0.0
2016-Apr-27 10:33N 38°01' E 012°31'0 0.0
2016-Apr-27 09:33N 38°01' E 012°31'1010.0
2016-Apr-27 08:33N 37°56' E 012°20'8 8.0
2016-Apr-27 07:33N 37°59' E 012°10'1616.1
2016-Apr-27 06:33N 38°01' E 012°31'9 8.9
2016-Apr-27 05:33N 37°58' E 012°20'9 8.8
2016-Apr-27 04:33N 38°01' E 012°31'3 0.2
2016-Apr-26 17:34N 37°59' E 012°28'3 2.7
2016-Apr-26 16:33N 38°01' E 012°31'8 8.3
2016-Apr-26 15:33N 37°59' E 012°20'2 2.2
2016-Apr-26 14:33N 37°58' E 012°18'1010.1
2016-Apr-26 13:33N 38°01' E 012°31'8 8.2
2016-Apr-26 12:33N 37°59' E 012°21'8 8.1
2016-Apr-26 11:33N 38°01' E 012°31'0 0.0
2016-Apr-26 10:33N 38°01' E 012°31'0 0.0
2016-Apr-26 09:33N 38°01' E 012°31'8 8.3
2016-Apr-26 08:33N 37°59' E 012°21'5 5.3
2016-Apr-26 07:33N 37°57' E 012°14'1313.4
2016-Apr-26 06:33N 38°01' E 012°31'8 8.1
2016-Apr-26 05:33N 37°59' E 012°21'8 8.1
2016-Apr-26 04:33N 38°01' E 012°31'1 0.1
2016-Apr-25 16:33N 38°00' E 012°30'7 7.4
2016-Apr-25 15:33N 37°59' E 012°21'3 3.1
2016-Apr-25 14:33N 37°56' E 012°19'1010.0
2016-Apr-25 13:33N 38°01' E 012°31'0 0.0
2016-Apr-25 12:33N 38°01' E 012°31'0 0.0
2016-Apr-25 11:33N 38°01' E 012°31'0 0.0
2016-Apr-25 10:33N 38°01' E 012°31'0 0.0
2016-Apr-25 09:34N 38°01' E 012°31'0 0.0
2016-Apr-25 08:34N 38°01' E 012°31'0 0.0
2016-Apr-25 07:34N 38°01' E 012°31'0 0.0
2016-Apr-25 06:33N 38°01' E 012°31'0 0.0
2016-Apr-25 05:33N 38°01' E 012°31'0 0.0
2016-Apr-25 04:34N 38°01' E 012°31'0 0.0
2016-Apr-24 18:07N 38°01' E 012°31'814.8
2016-Apr-24 17:33N 37°59' E 012°21'7 6.9
2016-Apr-24 16:34N 38°00' E 012°29'1110.9
2016-Apr-24 15:33N 37°58' E 012°15'2 1.9
2016-Apr-24 14:33N 37°58' E 012°18'1110.6
2016-Apr-24 13:33N 38°01' E 012°31'8 8.2
2016-Apr-24 12:33N 37°59' E 012°21'8 8.1
2016-Apr-24 11:33N 38°01' E 012°31'0 0.0
2016-Apr-24 10:33N 38°01' E 012°31'0 0.0
2016-Apr-24 09:33N 38°01' E 012°31'9 9.5
2016-Apr-24 08:33N 37°57' E 012°20'10 9.8
2016-Apr-24 07:33N 37°58' E 012°07'1817.5
2016-Apr-24 06:33N 37°60' E 012°29'8 8.3
2016-Apr-24 05:34N 37°57' E 012°19'10 9.6
2016-Apr-24 04:33N 38°01' E 012°31'6 0.6
2016-Apr-23 17:34N 37°59' E 012°23'6 6.3
2016-Apr-23 16:33N 38°01' E 012°31'1211.8
2016-Apr-23 15:33N 37°57' E 012°16'3 2.6
2016-Apr-23 14:34N 37°56' E 012°19'1010.0
2016-Apr-23 13:33N 38°01' E 012°31'8 8.2
2016-Apr-23 12:34N 37°59' E 012°21'8 8.2
2016-Apr-23 11:33N 38°01' E 012°31'0 0.0
2016-Apr-23 10:33N 38°01' E 012°31'0 0.0
2016-Apr-23 09:33N 38°01' E 012°31'8 8.4
2016-Apr-23 08:34N 37°57' E 012°21'1312.5
2016-Apr-23 07:33N 37°58' E 012°05'1919.1
2016-Apr-23 06:33N 38°00' E 012°29'7 7.1
2016-Apr-23 05:33N 37°59' E 012°21'8 8.2
2016-Apr-23 04:33N 38°01' E 012°31'6 0.5
2016-Apr-22 17:34N 37°60' E 012°24'  
Track history (hours):
 
Tides and Currents Weather Stations Pressure Air Temp Water Temp Dewpoint Dewpoint Depression Visibility Wind Speed Wind Dir Waves Ship Positions

Calypso

Last reported at 2016-May-02 17:34 UTC. Time now 2016-May-03 03:04 UTC.
Position N 37°60' E 012°29'.

Length 31 m; draft 4.2 m.

MMSI: 247143200.

Date/timePositionNaut miles runAvg speedWind from/ knotsBaromVisibWave heightAir tempDewpointWater temp
2016-May-02 17:34N 37°60' E 012°29'2 2.0
2016-May-02 16:34N 38°01' E 012°31'8 8.1
2016-May-02 15:33N 37°59' E 012°21'3 3.2
2016-May-02 14:32N 37°56' E 012°20'1010.2
2016-May-02 13:33N 38°01' E 012°31'8 8.2
2016-May-02 12:34N 37°59' E 012°21'8 8.2
2016-May-02 11:33N 38°01' E 012°31'0 0.0
2016-May-02 10:33N 38°01' E 012°31'0 0.0
2016-May-02 09:33N 38°01' E 012°31'1010.0
2016-May-02 08:33N 37°56' E 012°19'10 9.6
2016-May-02 07:33N 37°58' E 012°08'1818.3
2016-May-02 06:33N 38°01' E 012°31'8 8.2
2016-May-02 05:33N 37°59' E 012°21'8 8.2
2016-May-02 04:33N 38°01' E 012°31'0 0.0
2016-May-01 19:33N 38°01' E 012°31'0 0.0
2016-May-01 18:24N 38°01' E 012°31'7 8.1
2016-May-01 17:33N 37°58' E 012°23'7 6.7
2016-May-01 16:33N 38°01' E 012°31'8 8.2
2016-May-01 15:33N 37°59' E 012°21'1010.0
2016-May-01 14:33N 37°58' E 012°08'1818.3
2016-May-01 13:33N 38°01' E 012°31'8 8.2
2016-May-01 12:34N 37°59' E 012°21'8 8.2
2016-May-01 11:33N 38°01' E 012°31'0 0.0
2016-May-01 10:33N 38°01' E 012°31'0 0.0
2016-May-01 09:33N 38°01' E 012°31'8 8.1
2016-May-01 08:34N 37°57' E 012°22'1413.7
2016-May-01 07:33N 37°58' E 012°05'1919.1
2016-May-01 06:34N 37°60' E 012°29'7 6.6
2016-May-01 05:33N 37°58' E 012°20'8 8.4
2016-May-01 04:33N 38°01' E 012°31'1 0.1
2016-Apr-30 17:34N 38°00' E 012°30'1 1.1
2016-Apr-30 16:33N 38°01' E 012°31'8 8.2
2016-Apr-30 15:33N 37°59' E 012°21'2 2.2
2016-Apr-30 14:34N 37°57' E 012°19'10 9.9
2016-Apr-30 13:33N 38°01' E 012°31'8 8.2
2016-Apr-30 12:34N 37°59' E 012°21'8 8.2
2016-Apr-30 11:33N 38°01' E 012°31'0 0.0
2016-Apr-30 10:33N 38°01' E 012°31'0 0.0
2016-Apr-30 09:33N 38°01' E 012°31'6 6.5
2016-Apr-30 08:33N 37°58' E 012°24'1515.0
2016-Apr-30 07:34N 37°58' E 012°05'1817.5
2016-Apr-30 06:33N 37°59' E 012°27'6 5.8
2016-Apr-30 05:34N 37°57' E 012°20'9 9.3
2016-Apr-30 04:33N 38°01' E 012°31'2 0.2
2016-Apr-29 17:34N 37°60' E 012°29'2 2.0
2016-Apr-29 16:33N 38°01' E 012°31'8 8.2
2016-Apr-29 15:33N 37°59' E 012°21'3 2.8
2016-Apr-29 14:33N 37°57' E 012°18'1110.8
2016-Apr-29 13:34N 38°01' E 012°31'8 8.2
2016-Apr-29 12:34N 37°59' E 012°21'8 8.1
2016-Apr-29 11:33N 38°01' E 012°31'0 0.0
2016-Apr-29 10:33N 38°01' E 012°31'0 0.0
2016-Apr-29 09:33N 38°01' E 012°31'8 8.5
2016-Apr-29 08:33N 37°57' E 012°21'1211.4
2016-Apr-29 07:33N 37°58' E 012°07'1918.9
2016-Apr-29 06:34N 38°01' E 012°30'9 8.9
2016-Apr-29 05:33N 37°58' E 012°20'9 9.2
2016-Apr-29 04:33N 38°01' E 012°31'1 0.1
2016-Apr-28 17:33N 38°00' E 012°30'1 1.0
2016-Apr-28 16:34N 38°01' E 012°31'8 8.2
2016-Apr-28 15:34N 37°59' E 012°21'2 2.2
2016-Apr-28 14:34N 37°57' E 012°19'1010.0
2016-Apr-28 13:34N 38°01' E 012°31'8 8.2
2016-Apr-28 12:33N 37°59' E 012°20'8 8.2
2016-Apr-28 11:33N 38°01' E 012°31'0 0.0
2016-Apr-28 10:33N 38°01' E 012°31'5 4.9
2016-Apr-28 09:33N 38°00' E 012°24'3 2.9
2016-Apr-28 08:34N 37°57' E 012°23'1313.2
2016-Apr-28 07:33N 37°58' E 012°06'1918.7
2016-Apr-28 06:33N 38°00' E 012°30'7 7.4
2016-Apr-28 05:33N 37°59' E 012°20'8 8.3
2016-Apr-28 04:33N 38°01' E 012°31'2 0.2
2016-Apr-27 17:33N 38°00' E 012°29'2 1.5
2016-Apr-27 16:34N 38°01' E 012°30'8 8.0
2016-Apr-27 15:33N 37°59' E 012°21'2 2.2
2016-Apr-27 14:33N 37°58' E 012°18'1010.1
2016-Apr-27 13:33N 38°01' E 012°31'8 8.2
2016-Apr-27 12:33N 37°59' E 012°20'8 8.2
2016-Apr-27 11:33N 38°01' E 012°31'0 0.0
2016-Apr-27 10:33N 38°01' E 012°31'0 0.0
2016-Apr-27 09:33N 38°01' E 012°31'1010.0
2016-Apr-27 08:33N 37°56' E 012°20'8 8.0
2016-Apr-27 07:33N 37°59' E 012°10'1616.1
2016-Apr-27 06:33N 38°01' E 012°31'9 8.9
2016-Apr-27 05:33N 37°58' E 012°20'9 8.8
2016-Apr-27 04:33N 38°01' E 012°31'3 0.2
2016-Apr-26 17:34N 37°59' E 012°28'3 2.7
2016-Apr-26 16:33N 38°01' E 012°31'8 8.3
2016-Apr-26 15:33N 37°59' E 012°20'2 2.2
2016-Apr-26 14:33N 37°58' E 012°18'1010.1
2016-Apr-26 13:33N 38°01' E 012°31'8 8.2
2016-Apr-26 12:33N 37°59' E 012°21'8 8.1
2016-Apr-26 11:33N 38°01' E 012°31'0 0.0
2016-Apr-26 10:33N 38°01' E 012°31'0 0.0
2016-Apr-26 09:33N 38°01' E 012°31'8 8.3
2016-Apr-26 08:33N 37°59' E 012°21'5 5.3
2016-Apr-26 07:33N 37°57' E 012°14'1313.4
2016-Apr-26 06:33N 38°01' E 012°31'8 8.1
2016-Apr-26 05:33N 37°59' E 012°21'8 8.1
2016-Apr-26 04:33N 38°01' E 012°31'1 0.1
2016-Apr-25 16:33N 38°00' E 012°30'7 7.4
2016-Apr-25 15:33N 37°59' E 012°21'3 3.1
2016-Apr-25 14:33N 37°56' E 012°19'1010.0
2016-Apr-25 13:33N 38°01' E 012°31'0 0.0
2016-Apr-25 12:33N 38°01' E 012°31'0 0.0
2016-Apr-25 11:33N 38°01' E 012°31'0 0.0
2016-Apr-25 10:33N 38°01' E 012°31'0 0.0
2016-Apr-25 09:34N 38°01' E 012°31'0 0.0
2016-Apr-25 08:34N 38°01' E 012°31'0 0.0
2016-Apr-25 07:34N 38°01' E 012°31'0 0.0
2016-Apr-25 06:33N 38°01' E 012°31'0 0.0
2016-Apr-25 05:33N 38°01' E 012°31'0 0.0
2016-Apr-25 04:34N 38°01' E 012°31'0 0.0
2016-Apr-24 18:07N 38°01' E 012°31'814.8
2016-Apr-24 17:33N 37°59' E 012°21'7 6.9
2016-Apr-24 16:34N 38°00' E 012°29'1110.9
2016-Apr-24 15:33N 37°58' E 012°15'2 1.9
2016-Apr-24 14:33N 37°58' E 012°18'1110.6
2016-Apr-24 13:33N 38°01' E 012°31'8 8.2
2016-Apr-24 12:33N 37°59' E 012°21'8 8.1
2016-Apr-24 11:33N 38°01' E 012°31'0 0.0
2016-Apr-24 10:33N 38°01' E 012°31'0 0.0
2016-Apr-24 09:33N 38°01' E 012°31'9 9.5
2016-Apr-24 08:33N 37°57' E 012°20'10 9.8
2016-Apr-24 07:33N 37°58' E 012°07'1817.5
2016-Apr-24 06:33N 37°60' E 012°29'8 8.3
2016-Apr-24 05:34N 37°57' E 012°19'10 9.6
2016-Apr-24 04:33N 38°01' E 012°31'6 0.6
2016-Apr-23 17:34N 37°59' E 012°23'6 6.3
2016-Apr-23 16:33N 38°01' E 012°31'1211.8
2016-Apr-23 15:33N 37°57' E 012°16'3 2.6
2016-Apr-23 14:34N 37°56' E 012°19'1010.0
2016-Apr-23 13:33N 38°01' E 012°31'8 8.2
2016-Apr-23 12:34N 37°59' E 012°21'8 8.2
2016-Apr-23 11:33N 38°01' E 012°31'0 0.0
2016-Apr-23 10:33N 38°01' E 012°31'0 0.0
2016-Apr-23 09:33N 38°01' E 012°31'8 8.4
2016-Apr-23 08:34N 37°57' E 012°21'1312.5
2016-Apr-23 07:33N 37°58' E 012°05'1919.1
2016-Apr-23 06:33N 38°00' E 012°29'7 7.1
2016-Apr-23 05:33N 37°59' E 012°21'8 8.2
2016-Apr-23 04:33N 38°01' E 012°31'6 0.5
2016-Apr-22 17:34N 37°60' E 012°24'  

Dump ship's entire track history